Западная Россия

Регион "Западная Россия" VATRUS включает в себя территорию Республики Беларусь - Зональный центр Минск, а также территорию Региональных центров ЕС ОрВД Москва и Самара в Российской Федерации.

Примечателен регион тем, что в Беларуси полеты осуществляются в соответствии с международными документами ICAO, а в России - согласно Федеральным авиационным правилам. Это накладывает некоторые особенности работы, в том числе немного различаются минимальные интервалы.

Тем не менее, на всей территории региона радиосвязь может вестись как на русском, так и на английском языках.

Руководство осуществляют независимо руководители трех центров, их контакты вы можете найти на страницах РПИ ниже.

Лого Западная Россия
FSS региона
Обозначение
RU-WRC_FSS
Позывной
Запад-Контроль
Частота
135.320
Примечание
Top-down, исключая Московский УДР GND-FL285
Инструкторы региона
Alexander Petrenko (Instructor)
Alexey Dobronravov (Instructor)
Anton Myglan (Senior Instructor)
Artem Smorchkov * (Controller)
Denis Kashin (Instructor)
Dmitry Markus (Instructor)
Ilya Pyankov (Instructor)
Ivan Chokenyuk * (Controller)
Ivan Skatov (Instructor)
Matvey Safyannikov (Instructor)
Maxim Gerasimov (Instructor)
Maxim Tsygankov (Instructor)
Roman Savel (Instructor)
Sergei Stetsko * (Controller)
Yulia Goryacheva (Instructor)
Включает в себя

РПИ Минск
РПИ Москва
РПИ Самара

Диспетчеры региона

Диспетчер Рейтинг Допуски *
Alexander Petrenko Instructor UUWV_CTR, UWWW_CTR
Alexey Dobronravov Instructor UUWV_CTR, UWWW_CTR
Andrei Valasevich Controller UMMV_CTR
Artem Smorchkov Controller UUWV_CTR, UWWW_CTR
Denis Kashin Instructor UMMV_CTR
Dmitry Markus Instructor UUWV_CTR, UWWW_CTR
George Kalandadze Controller UUWV_CTR
Ivan Buev Senior Student UUWV_CTR *
Ivan Skatov Instructor UUWV_CTR, UWWW_CTR
Karim Garifullin Instructor UUWV_CTR
Masha Stanchenko Controller UUWV_CTR
Maxim Gerasimov Instructor UMMV_CTR
Maxim Tsygankov Instructor UUWV_CTR, UWWW_CTR
Robert Farber Controller UUWV_CTR
Roman Savel Instructor UMMV_CTR
Sergei Stetsko Controller UWWW_CTR
Sergey Kovalenko Controller UUWV_CTR
Yulia Goryacheva Instructor UUWV_CTR, UWWW_CTR
Yury Koryagin Instructor UUWV_CTR, UWWW_CTR
Akmal Choriev Student UMMS_GND
Aleksandr Lysenko Student UUWW_GND, UUWW_TWR*
Alex Sapuck Student UUDD_GND
Alexander Mikhin Student 2 UUDD_TWR
Alexander Nazarenko Student UMMS_GND
Alexey Verbitsky Student UMMS_GND
Anna Piliushko Student 2 UMMS_APP*
Anton Beshenov Student UUEE_GND, UUEE_S_GND, UUEE_N_GND
Arseny Krutikov Student 2 UMMS_R_APP*
Artem Morozov Student 2 UUEE_F_APP*, UUEE_N_TWR, UUEE_APP*, UUEE_S_TWR, UUEE_DEP*, UUEE_TWR
Artem Smychkov Instructor UUDD_DEP, UUEE_F_APP, UUWW_F_APP, UUDD_F_APP, UUEE_APP, UUWW_APP, UUDD_APP, UUEE_DEP, UUWW_DEP
Arteom Alexeev Student UUEE_S_GND, UUEE_GND, UUEE_N_GND
Arthur Kurbangaleev Student UWWW_GND
Artyom Somok Student UMMS_GND
Bogdan Mavrodiev Student UUDD_GND
Daniil Voinov Senior Student MSK_APP(UUEE+UUWW+UUDD)
Danil Basharov Student 2 UUDD_F_APP*, UUDD_APP*, UUDD_TWR, UUDD_DEP*
Danila Yarov Senior Student UMMS_APP
Denis Rybalkin Student UWWW_GND
Dmitriy Kuzmin Senior Student UMMS_APP*
Egor Goriachev Student UUEE_S_TWR*, UUEE_GND, UUEE_TWR*, UUEE_N_GND, UUEE_N_TWR*, UUEE_S_GND
Evgeniy Dedyaev Senior Student MSK_APP(UUWW+UUDD+UUEE)
Gleb Ishmuratov Student UUDD_GND
Gleb Smolkov Student 2 UUEE_N_TWR, UUEE_APP*, UUEE_S_TWR, UUEE_DEP*, UUEE_TWR, UUEE_F_APP*
Ignat Aligov Student UUWW_GND
Ignat Morozov Student 2 UMMS_GND
Iosif Karpov Student 2 UMMS_R_APP*
Ivan Davidovich Student UMMS_GND
Kirill Kudryavtsev Student UUWW_GND
Kirill Ryabov Student 2 UUEE_APP*, UUEE_DEP*, UUEE_F_APP*
Kirill Shabunin Senior Controller UWKD_APP(UWKD+UWKJ+UWKB+UWKS+UWKE)
Mark Brenden Student UUDD_GND
Maxim Ivantsov Student 2 UMMS_R_APP*
Maxim Kalalenskiy Student UUWW_TWR*, UUWW_GND
Maxim Khromtsov Controller MSK_APP(UUEE+UUWW+UUDD)
Michael Kostelcev Student 2 UMMS_APP*
Michael Loyuk Senior Student UUDD_APP, UUDD_DEP, UUDD_F_APP
Mikhail Kirillov Student UUEE_N_GND, UUEE_S_GND, UUEE_GND
Nick Smirnov Student 2 UUEE_S_TWR, UUWW_TWR, MSK_APP(UUEE+UUWW+UUDD), UUEE_TWR, UUEE_N_TWR
Nikita Levin Student 2 UUWW_TWR, UUEE_APP*, UUEE_DEP*, UUEE_F_APP*
Pavel Sergienko Student 2 UUML_TWR
Pavel Yashin Student 2 UMMS_APP*, UWKD_GND
Petr Koreshkov Student UUEE_S_GND, UUEE_GND, UUEE_N_GND
Sergey Isaev Student 2 UUEE_S_TWR, UUWW_F_APP*, UUEE_TWR, UUWW_APP*, UUEE_N_TWR, UUWW_DEP*
Sergey Soshnikov Student UWWW_GND
Stanley Yorke Controller UUWW_DEP, UUWW_F_APP, UUWW_APP
Vladimir Kon Student UUDD_GND
Vsevolod Shyshko Student UMMS_1_TWR*, UMMS_2_TWR*
Vsevolod Skryabin Student 2 UWOO_GND!!!
Vyacheslav Neklyudov Student 2 MSK_APP(UUEE+UUDD+UUWW), UUEE_TWR, UUEE_N_TWR, UUEE_S_TWR
Yury Kompaniychenko Student 2 UUML_TWR!!!

Аэропорты региона

ICAO Город Название Погода
UMMS Минск Минск UMMS 121700Z 04003MPS CAVOK 24/13 Q1023 NOSIG
UUWW Москва Внуково UUWW 121700Z 33003MPS CAVOK 24/08 Q1023 R24/000070 NOSIG
UUDD Москва Домодедово UUDD 121700Z 16002MPS CAVOK 22/12 Q1023 R32L/CLRD60 NOSIG
UUBW Москва Жуковский UUBW 121700Z 24002MPS CAVOK 24/11 Q1023 R30/010060 NOSIG
UUMU Москва Чкаловский
UUEE Москва Шереметьево UUEE 121700Z 34003MPS 290V360 CAVOK 24/11 Q1023 R24L/CLRD62 R24C/CLRD62 NOSIG
UWWW Самара Курумоч UWWW 121700Z 30002MPS CAVOK 24/09 Q1022 R33/CLRD60 NOSIG RMK QFE755/1007
UWUU Уфа Уфа UWUU 121700Z 25003MPS 160V260 CAVOK 18/10 Q1020 R32L/0///60 NOSIG
UUOB Белгород Белгород UUOB 121700Z 04003MPS CAVOK 26/16 Q1018 R29/010070 NOSIG
UMBB Брест Брест UMBB 121300Z 07002MPS 9000 FEW060CB SCT100 25/18 Q1021 NOSIG
UUBP Брянск Брянск UUBP 121700Z AUTO 02003MPS 9999 NCD 24/16 Q1022 RMK QFE749/0998
UWKB Бугульма Бугульма
UMII Витебск Восточный UMII 121700Z 06002MPS CAVOK 22/14 Q1023 NOSIG
UUOO Воронеж Воронеж UUOO 121700Z 03003MPS CAVOK 27/17 Q1020 R12/010070 NOSIG RMK QFE751
UMGG Гомель Гомель UMGG 121700Z 03007MPS CAVOK 27/18 Q1021 NOSIG
UMMG Гродно Гродно UMMG 121300Z 08003G06MPS CAVOK 27/15 Q1023 NOSIG
UUBI Иваново Иваново
UWKJ Йошкар-Ола Йошкар-Ола
UWKD Казань Казань UWKD 121700Z 27003MPS CAVOK 20/11 Q1021 R11/70D NOSIG RMK QFE755/1007
UUBC Калуга Калуга UUBC 121700Z VRB01MPS CAVOK 20/15 Q1023 R31/CLRD60 NOSIG RMK QFE750/1000
UUOK Курск Курск UUOK 121700Z 07004MPS CAVOK 27/16 Q1020 R12/090060 NOSIG RMK QFE747/0996
UMOO Могилёв Могилёв UMOO 121300Z 06004MPS CAVOK 27/10 Q1025 NOSIG
UUMO Москва Остафьево UUMO 121700Z 25002MPS 200V320 CAVOK 23/13 Q1023 R25/CLRD60 NOSIG RMK QFE752/1003
UWKE Нижнекамск Бегишево UWKE 121700Z 25003MPS CAVOK 18/12 Q1020 R21/090070 NOSIG RMK QFE748/0998
UWGG Нижний Новгород Стригино UWGG 121700Z 23002MPS CAVOK 19/15 Q1022 R18L/090070 NOSIG
UWOO Оренбург Оренбург UWOO 121700Z 35005MPS CAVOK 20/07 Q1020 R26/63D NOSIG RMK QFE754/1006
UWOR Орск Орск UWOR 121700Z 07004MPS CAVOK 22/11 Q1018 R07/CLRD65 NOSIG RMK QFE739/0985
UWPP Пенза Пенза
UWPS Саранск Саранск UWPS 121700Z 34002MPS CAVOK 22/11 Q1023 R02/CLRD60 NOSIG RMK QFE747
UWSG Саратов Гагарин UWSG 121700Z 00000MPS CAVOK 24/18 Q1021 R08/CLRD70 NOSIG RMK QFE763/1018
UWLL Ульяновск-УЛК Ульяновск UWLL 121700Z 00000MPS CAVOK 22/12 Q1022 R02/090065 NOSIG RMK QFE754/1005
UWLW Ульяновск-УЛС Восточный UWLW 121700Z 25002MPS CAVOK 19/13 Q1021 R02/CLRD60 NOSIG RMK QFE759/1012
UWKS Чебоксары Чебоксары UWKS 121700Z 26004MPS CAVOK 19/12 Q1021 R24/010060 NOSIG RMK QFE751
UUDL Ярославль Туношна UUDL 121700Z 24002MPS CAVOK 21/14 Q1022 R23/010060 NOSIG RMK QFE758
UUMW Ватулино Ватулино
UUML Воскресенск Северка